Time;durP1;ratioP1;P1;durP2;ratioP2;P2;SDS_P1;SDS_P2;PMS_P1;PMS_P2;Temp;Humidity;BMP_temperature;BMP_pressure;BME280_temperature;BME280_humidity;BME280_pressure;Samples;Min_cycle;Max_cycle;Signal;HPM_P1;HPM_P2
2023/05/01 00:00:33;;;;;;;6.32;2.95;;;11.90;99.90;;;;;;5030040;28;20455;-34
2023/05/01 00:02:58;;;;;;;9.13;3.15;;;11.90;99.90;;;;;;5030514;28;20045;-34
2023/05/01 00:05:24;;;;;;;7.25;3.65;;;11.90;99.90;;;;;;5030306;28;20037;-34
2023/05/01 00:07:50;;;;;;;6.03;2.70;;;11.90;99.90;;;;;;5038023;28;20040;-34
2023/05/01 00:10:16;;;;;;;5.88;2.85;;;11.80;99.90;;;;;;5030574;28;20067;-34
2023/05/01 00:12:41;;;;;;;4.97;2.60;;;11.80;99.90;;;;;;5029878;28;20049;-34
2023/05/01 00:15:08;;;;;;;5.95;2.90;;;11.80;99.90;;;;;;5035115;28;20048;-34
2023/05/01 00:17:33;;;;;;;7.57;3.25;;;11.70;99.90;;;;;;5032514;28;20049;-34
2023/05/01 00:19:59;;;;;;;6.07;3.75;;;11.60;99.90;;;;;;5041505;28;20426;-34
2023/05/01 00:22:25;;;;;;;10.57;4.43;;;11.50;99.90;;;;;;5043297;28;20107;-34
2023/05/01 00:24:50;;;;;;;8.00;3.00;;;11.50;99.90;;;;;;5047528;28;20071;-34
2023/05/01 00:27:16;;;;;;;7.47;3.05;;;11.50;99.90;;;;;;5044714;28;20053;-34
2023/05/01 00:29:41;;;;;;;5.18;3.17;;;11.50;99.90;;;;;;5030419;28;20049;-34
2023/05/01 00:32:07;;;;;;;5.93;2.83;;;11.40;99.90;;;;;;5045516;28;20057;-34
2023/05/01 00:34:33;;;;;;;7.70;3.60;;;11.30;99.90;;;;;;5038169;28;20413;-34
2023/05/01 00:36:59;;;;;;;7.05;3.83;;;11.20;99.90;;;;;;5029541;28;20057;-34
2023/05/01 00:39:24;;;;;;;6.18;2.92;;;11.20;99.90;;;;;;5044856;28;20415;-34
2023/05/01 00:41:50;;;;;;;9.68;2.90;;;11.10;99.90;;;;;;5047592;28;20080;-35
2023/05/01 00:44:16;;;;;;;5.25;2.30;;;11.00;99.90;;;;;;5029976;28;20080;-34
2023/05/01 00:46:42;;;;;;;3.17;2.03;;;11.00;99.90;;;;;;5028617;28;20156;-34
2023/05/01 00:49:08;;;;;;;5.03;2.83;;;10.90;99.90;;;;;;5028976;28;20049;-34
2023/05/01 00:51:35;;;;;;;5.93;2.70;;;10.80;99.90;;;;;;5029636;28;20152;-34
2023/05/01 00:54:02;;;;;;;5.97;2.65;;;10.70;99.90;;;;;;5048816;28;20057;-34
2023/05/01 00:56:29;;;;;;;6.15;2.92;;;10.70;99.90;;;;;;5034694;28;20057;-34
2023/05/01 00:58:55;;;;;;;4.57;2.58;;;10.60;99.90;;;;;;5029227;28;20053;-34
2023/05/01 01:01:21;;;;;;;6.18;2.78;;;10.50;99.90;;;;;;5029551;28;20076;-34
2023/05/01 01:03:47;;;;;;;5.30;2.53;;;10.50;99.90;;;;;;5037194;28;20431;-34
2023/05/01 01:06:53;;;;;;;4.80;2.47;;;10.50;99.90;;;;;;5037773;28;20057;-34
2023/05/01 01:09:31;;;;;;;4.28;2.30;;;10.40;99.90;;;;;;5040325;28;20084;-34
2023/05/01 01:12:22;;;;;;;5.95;3.08;;;10.30;99.90;;;;;;5040349;28;20092;-33
2023/05/01 01:15:11;;;;;;;7.00;2.90;;;10.30;99.90;;;;;;5029589;28;20083;-34
2023/05/01 01:18:07;;;;;;;6.75;2.60;;;10.30;99.90;;;;;;5023231;28;20148;-34
2023/05/01 01:20:44;;;;;;;5.40;2.63;;;10.30;99.90;;;;;;5031521;28;20060;-34
2023/05/01 01:23:31;;;;;;;6.22;2.92;;;10.30;99.90;;;;;;5033197;28;20053;-34
2023/05/01 01:26:34;;;;;;;4.88;2.55;;;10.20;99.90;;;;;;5031550;28;20590;-34
2023/05/01 01:29:22;;;;;;;7.13;2.35;;;10.20;99.90;;;;;;5035230;28;20060;-34
2023/05/01 01:32:32;;;;;;;4.40;2.53;;;10.10;99.90;;;;;;5036870;28;20510;-34
2023/05/01 01:35:03;;;;;;;5.88;2.55;;;10.10;99.90;;;;;;5004551;28;20080;-33
2023/05/01 01:37:46;;;;;;;4.47;2.50;;;10.00;99.90;;;;;;5044389;28;20057;-34
2023/05/01 01:40:17;;;;;;;5.18;2.30;;;10.00;99.90;;;;;;5035376;28;20696;-33
2023/05/01 01:42:54;;;;;;;7.75;2.95;;;10.00;99.90;;;;;;5037597;28;22168;-33
2023/05/01 01:45:27;;;;;;;9.27;2.88;;;10.00;99.90;;;;;;5045056;28;20081;-34
2023/05/01 01:47:55;;;;;;;7.68;3.22;;;10.00;99.90;;;;;;5028938;28;20056;-34
2023/05/01 01:50:25;;;;;;;7.88;3.60;;;9.90;99.90;;;;;;5048777;28;20049;-34
2023/05/01 01:52:51;;;;;;;6.72;3.40;;;9.90;99.90;;;;;;5033157;28;20388;-34
2023/05/01 01:55:24;;;;;;;7.30;3.53;;;9.90;99.90;;;;;;5044819;28;20400;-34
2023/05/01 01:57:50;;;;;;;5.70;2.40;;;9.90;99.90;;;;;;5028772;28;20076;-33
2023/05/01 02:00:17;;;;;;;7.40;2.50;;;9.90;99.90;;;;;;5039057;28;20036;-34
2023/05/01 02:02:45;;;;;;;5.10;2.95;;;9.90;99.90;;;;;;5046371;28;20492;-34
2023/05/01 02:05:14;;;;;;;6.68;2.70;;;9.80;99.90;;;;;;5032413;28;20046;-34
2023/05/01 02:07:42;;;;;;;5.55;3.15;;;9.80;99.90;;;;;;5038619;28;20155;-34
2023/05/01 02:10:12;;;;;;;10.55;3.00;;;9.80;99.90;;;;;;5034664;28;20053;-33
2023/05/01 02:12:40;;;;;;;6.05;2.70;;;9.80;99.90;;;;;;5032825;28;20564;-34
2023/05/01 02:15:08;;;;;;;6.55;2.97;;;9.80;99.90;;;;;;5031440;28;20065;-34
2023/05/01 02:17:36;;;;;;;6.60;2.83;;;9.70;99.90;;;;;;5032585;28;20419;-34
2023/05/01 02:20:05;;;;;;;6.45;3.10;;;9.60;99.90;;;;;;5032748;28;20679;-34
2023/05/01 02:22:31;;;;;;;7.22;3.28;;;9.60;99.90;;;;;;5039993;28;20049;-34
2023/05/01 02:24:58;;;;;;;8.85;3.60;;;9.60;99.90;;;;;;5040680;28;20049;-34
2023/05/01 02:27:31;;;;;;;8.23;3.05;;;9.60;99.90;;;;;;5031944;28;20132;-33
2023/05/01 02:29:56;;;;;;;5.07;2.80;;;9.50;99.90;;;;;;5040432;28;20046;-34
2023/05/01 02:32:22;;;;;;;7.05;2.95;;;9.40;99.90;;;;;;5042846;28;20130;-34
2023/05/01 02:34:48;;;;;;;3.92;2.13;;;9.40;99.90;;;;;;5051794;28;20140;-40
2023/05/01 02:37:14;;;;;;;5.18;2.38;;;9.40;99.90;;;;;;5033311;28;20053;-33
2023/05/01 02:39:40;;;;;;;6.82;2.53;;;9.40;99.90;;;;;;5040680;28;20053;-33
2023/05/01 02:42:08;;;;;;;5.20;2.25;;;9.40;99.90;;;;;;5031691;28;20053;-34
2023/05/01 02:45:00;;;;;;;5.20;2.40;;;9.30;99.90;;;;;;5032257;28;20049;-33
2023/05/01 02:47:28;;;;;;;5.72;2.35;;;9.30;99.90;;;;;;5026370;28;20128;-34
2023/05/01 02:49:56;;;;;;;5.45;2.80;;;9.20;99.90;;;;;;5031977;28;20049;-33
2023/05/01 02:52:22;;;;;;;5.97;2.60;;;9.20;99.90;;;;;;5032378;28;20127;-34
2023/05/01 02:54:48;;;;;;;4.70;2.55;;;9.20;99.90;;;;;;5032192;28;20050;-34
2023/05/01 02:57:16;;;;;;;4.63;2.38;;;9.10;99.90;;;;;;5041006;28;20084;-33
2023/05/01 02:59:41;;;;;;;3.95;2.10;;;9.10;99.90;;;;;;5047000;28;20115;-33
2023/05/01 03:02:07;;;;;;;5.85;2.60;;;9.10;99.90;;;;;;5031131;28;20519;-33
2023/05/01 03:04:33;;;;;;;6.43;2.50;;;9.00;99.90;;;;;;5032087;28;20140;-34
2023/05/01 03:06:58;;;;;;;5.40;2.65;;;9.00;99.90;;;;;;5039009;28;20084;-34
2023/05/01 03:09:24;;;;;;;5.85;2.72;;;9.00;99.90;;;;;;5051091;28;20164;-33
2023/05/01 03:11:49;;;;;;;6.63;2.88;;;8.90;99.90;;;;;;5037236;28;20050;-34
2023/05/01 03:14:15;;;;;;;4.03;2.10;;;8.90;99.90;;;;;;5048204;28;20049;-37
2023/05/01 03:16:41;;;;;;;4.95;2.22;;;8.90;99.90;;;;;;5045933;28;20088;-38
2023/05/01 03:19:07;;;;;;;5.15;2.25;;;8.80;99.90;;;;;;5030554;28;20140;-34
2023/05/01 03:21:33;;;;;;;4.82;2.33;;;8.80;99.90;;;;;;5031688;28;20114;-33
2023/05/01 03:23:59;;;;;;;7.43;2.78;;;8.80;99.90;;;;;;5038847;28;20064;-33
2023/05/01 03:26:26;;;;;;;5.57;2.90;;;8.80;99.90;;;;;;5039559;28;20126;-33
2023/05/01 03:28:51;;;;;;;6.22;2.97;;;8.80;99.90;;;;;;5031561;28;20104;-33
2023/05/01 03:31:17;;;;;;;4.20;2.03;;;8.70;99.90;;;;;;5038429;28;20041;-33
2023/05/01 03:33:43;;;;;;;6.68;2.35;;;8.80;99.90;;;;;;5031459;28;20160;-34
2023/05/01 03:36:10;;;;;;;6.20;2.70;;;8.80;99.90;;;;;;5030356;28;20064;-33
2023/05/01 03:38:36;;;;;;;5.22;2.58;;;8.80;99.90;;;;;;5034461;28;20169;-33
2023/05/01 03:41:03;;;;;;;5.07;2.05;;;8.70;99.90;;;;;;5035520;28;20479;-33
2023/05/01 03:43:30;;;;;;;5.38;2.53;;;8.70;99.90;;;;;;5038778;28;20057;-33
2023/05/01 03:45:56;;;;;;;4.25;2.28;;;8.70;99.90;;;;;;5039305;28;20087;-33
2023/05/01 03:48:22;;;;;;;6.38;3.08;;;8.60;99.90;;;;;;5030286;28;20529;-34
2023/05/01 03:50:48;;;;;;;7.18;2.65;;;8.60;99.90;;;;;;5030921;28;20077;-36
2023/05/01 03:53:14;;;;;;;5.00;2.50;;;8.60;99.90;;;;;;5062058;28;20624;-33
2023/05/01 03:55:39;;;;;;;4.72;2.40;;;8.60;99.90;;;;;;5030861;28;20509;-33
2023/05/01 03:58:06;;;;;;;6.90;2.88;;;8.60;99.90;;;;;;5031002;28;20045;-33
2023/05/01 04:00:32;;;;;;;5.68;2.45;;;8.60;99.90;;;;;;5032994;28;20049;-33
2023/05/01 04:02:58;;;;;;;4.63;2.42;;;8.60;99.90;;;;;;5050357;28;20045;-33
2023/05/01 04:05:23;;;;;;;4.93;2.25;;;8.60;99.90;;;;;;5039427;28;20087;-33
2023/05/01 04:07:49;;;;;;;5.90;2.63;;;8.60;99.90;;;;;;5030681;28;20061;-33
2023/05/01 04:10:16;;;;;;;5.97;2.50;;;8.60;99.90;;;;;;5038681;28;20077;-33
2023/05/01 04:12:42;;;;;;;6.57;2.75;;;8.60;99.90;;;;;;5046483;28;20495;-33
2023/05/01 04:15:08;;;;;;;6.70;2.90;;;8.60;99.90;;;;;;5031386;28;20060;-33
2023/05/01 04:17:37;;;;;;;6.03;2.70;;;8.60;99.90;;;;;;5045532;28;20102;-33
2023/05/01 04:20:05;;;;;;;5.95;3.10;;;8.60;99.90;;;;;;5045790;28;20490;-33
2023/05/01 04:22:31;;;;;;;4.63;2.53;;;8.50;99.90;;;;;;5032923;28;20068;-33
2023/05/01 04:24:56;;;;;;;6.35;3.40;;;8.50;99.90;;;;;;5042845;28;20491;-33
2023/05/01 04:27:22;;;;;;;5.53;2.88;;;8.50;99.90;;;;;;5047527;28;20076;-33
2023/05/01 04:29:48;;;;;;;6.57;2.75;;;8.50;99.90;;;;;;5050292;28;20049;-33
2023/05/01 04:32:13;;;;;;;5.57;2.78;;;8.60;99.90;;;;;;5050290;28;20167;-34
2023/05/01 04:34:39;;;;;;;4.40;2.50;;;8.60;99.90;;;;;;5049431;28;20212;-34
2023/05/01 04:37:07;;;;;;;7.35;2.80;;;8.60;99.90;;;;;;5050011;28;20077;-33
2023/05/01 04:39:33;;;;;;;5.95;3.17;;;8.60;99.90;;;;;;5048968;28;20052;-37
2023/05/01 04:41:59;;;;;;;6.28;2.85;;;8.60;99.90;;;;;;5050187;28;20134;-33
2023/05/01 04:44:25;;;;;;;5.38;2.53;;;8.60;99.90;;;;;;5049101;28;20088;-33
2023/05/01 04:46:50;;;;;;;7.75;2.60;;;8.60;99.90;;;;;;5042504;28;20042;-33
2023/05/01 04:49:16;;;;;;;7.63;2.97;;;8.70;99.90;;;;;;5032986;28;20560;-33
2023/05/01 04:51:42;;;;;;;9.45;3.08;;;8.70;99.90;;;;;;5033385;28;20044;-33
2023/05/01 04:54:07;;;;;;;10.25;3.13;;;8.80;99.90;;;;;;5042756;28;20072;-34
2023/05/01 04:56:33;;;;;;;6.82;2.58;;;8.80;99.90;;;;;;5028813;28;20061;-36
2023/05/01 04:58:59;;;;;;;6.60;2.75;;;8.90;99.90;;;;;;5035600;28;20586;-35
2023/05/01 05:01:24;;;;;;;5.10;2.63;;;8.90;99.90;;;;;;5039857;28;20144;-33
2023/05/01 05:03:50;;;;;;;8.18;2.92;;;9.00;99.90;;;;;;5028114;28;20061;-33
2023/05/01 05:06:15;;;;;;;7.45;2.72;;;9.00;99.90;;;;;;5029691;28;20072;-35
2023/05/01 05:08:41;;;;;;;6.32;2.65;;;9.10;99.90;;;;;;5048623;28;20048;-33
2023/05/01 05:11:07;;;;;;;6.45;2.78;;;9.10;99.90;;;;;;5048024;28;20045;-33
2023/05/01 05:13:32;;;;;;;5.85;2.35;;;9.10;99.90;;;;;;5030179;28;20462;-33
2023/05/01 05:15:58;;;;;;;6.15;2.42;;;9.20;99.90;;;;;;5029528;28;20103;-33
2023/05/01 05:18:24;;;;;;;10.10;2.70;;;9.30;99.90;;;;;;5044644;28;20044;-33
2023/05/01 05:20:50;;;;;;;6.22;2.58;;;9.30;99.90;;;;;;5035478;28;20057;-33
2023/05/01 05:23:15;;;;;;;7.97;2.53;;;9.40;99.90;;;;;;5029700;28;20097;-33
2023/05/01 05:25:41;;;;;;;6.00;2.13;;;9.40;99.90;;;;;;5036932;28;20057;-33
2023/05/01 05:28:07;;;;;;;5.85;2.63;;;9.50;99.90;;;;;;5029770;28;20045;-33
2023/05/01 05:30:33;;;;;;;5.60;2.80;;;9.50;99.90;;;;;;5037224;28;20092;-34
2023/05/01 05:32:59;;;;;;;6.65;2.63;;;9.60;99.90;;;;;;5029006;28;20046;-33
2023/05/01 05:35:24;;;;;;;5.47;2.63;;;9.70;99.90;;;;;;5029512;28;20060;-33
2023/05/01 05:37:50;;;;;;;12.18;3.90;;;9.70;99.90;;;;;;5040940;28;20057;-33
2023/05/01 05:40:16;;;;;;;5.47;2.35;;;9.80;99.90;;;;;;5033659;28;20053;-33
2023/05/01 05:42:41;;;;;;;8.50;3.05;;;9.80;99.90;;;;;;5032774;28;20050;-32
2023/05/01 05:45:08;;;;;;;8.07;2.97;;;9.90;99.90;;;;;;5039383;28;20481;-33
2023/05/01 05:47:34;;;;;;;3.78;2.20;;;9.90;99.90;;;;;;5052388;28;20056;-34
2023/05/01 05:49:59;;;;;;;5.00;2.72;;;10.00;99.90;;;;;;5052770;28;20056;-33
2023/05/01 05:52:25;;;;;;;6.38;2.67;;;10.00;99.90;;;;;;5052837;28;20057;-33
2023/05/01 05:54:50;;;;;;;6.07;2.53;;;10.10;99.90;;;;;;5052869;28;20071;-33
2023/05/01 05:57:16;;;;;;;5.10;2.47;;;10.10;99.90;;;;;;5052875;28;20053;-33
2023/05/01 05:59:43;;;;;;;6.72;2.38;;;10.20;99.90;;;;;;5050227;28;20481;-33
2023/05/01 06:02:09;;;;;;;6.53;2.72;;;10.20;99.90;;;;;;5033006;28;20071;-33
2023/05/01 06:04:35;;;;;;;4.88;2.25;;;10.30;99.90;;;;;;5032253;28;20543;-33
2023/05/01 06:07:00;;;;;;;6.63;2.65;;;10.30;99.90;;;;;;5037371;28;20056;-33
2023/05/01 06:09:26;;;;;;;6.85;2.40;;;10.40;99.90;;;;;;5044124;28;20053;-33
2023/05/01 06:11:51;;;;;;;5.30;2.75;;;10.50;99.90;;;;;;5043736;28;20053;-33
2023/05/01 06:14:17;;;;;;;9.18;3.05;;;10.50;99.90;;;;;;5052854;28;20056;-33
2023/05/01 06:16:43;;;;;;;7.70;2.70;;;10.60;99.90;;;;;;5033149;28;20053;-33
2023/05/01 06:19:11;;;;;;;7.22;2.40;;;10.70;99.90;;;;;;5032337;28;20057;-33
2023/05/01 06:21:36;;;;;;;11.82;3.28;;;10.70;99.90;;;;;;5031798;28;20434;-33
2023/05/01 06:24:02;;;;;;;7.00;3.55;;;10.80;99.90;;;;;;5032625;28;20053;-33
2023/05/01 06:26:28;;;;;;;6.43;2.65;;;10.90;99.90;;;;;;5032167;28;20480;-33
2023/05/01 06:28:54;;;;;;;7.60;2.90;;;11.00;99.90;;;;;;5032515;28;20136;-33
2023/05/01 06:31:20;;;;;;;6.10;2.47;;;11.10;99.90;;;;;;5032414;28;20065;-33
2023/05/01 06:33:45;;;;;;;5.00;2.42;;;11.10;99.90;;;;;;5042423;28;20061;-33
2023/05/01 06:36:11;;;;;;;9.00;3.28;;;11.10;99.90;;;;;;5037930;28;20076;-33
2023/05/01 06:38:37;;;;;;;6.82;2.80;;;11.20;99.90;;;;;;5032437;28;20049;-33
2023/05/01 06:41:06;;;;;;;6.20;2.75;;;11.20;99.90;;;;;;5052115;28;20041;-33
2023/05/01 06:43:32;;;;;;;6.28;2.63;;;11.20;99.90;;;;;;5034735;28;20065;-33
2023/05/01 06:45:58;;;;;;;8.90;2.97;;;11.20;99.90;;;;;;5031877;28;20045;-34
2023/05/01 06:48:23;;;;;;;7.35;2.90;;;11.20;99.90;;;;;;5039362;28;20455;-33
2023/05/01 06:50:49;;;;;;;5.28;2.40;;;11.30;99.90;;;;;;5031097;28;20080;-33
2023/05/01 06:53:15;;;;;;;6.72;2.70;;;11.20;99.90;;;;;;5032067;28;20057;-33
2023/05/01 06:55:41;;;;;;;8.02;3.13;;;11.20;99.90;;;;;;5031408;28;20053;-33
2023/05/01 06:58:07;;;;;;;5.55;2.80;;;11.20;99.90;;;;;;5039997;28;20037;-33
2023/05/01 07:00:36;;;;;;;6.03;2.85;;;11.20;99.90;;;;;;5039719;28;20453;-33
2023/05/01 07:03:02;;;;;;;6.47;2.70;;;11.20;99.90;;;;;;5031870;28;20458;-33
2023/05/01 07:05:29;;;;;;;8.60;3.13;;;11.20;99.90;;;;;;5039485;28;20076;-33
2023/05/01 07:07:54;;;;;;;5.93;2.45;;;11.20;99.90;;;;;;5031469;28;20443;-33
2023/05/01 07:10:20;;;;;;;7.70;2.83;;;11.20;99.90;;;;;;5039215;28;20148;-34
2023/05/01 07:12:46;;;;;;;8.35;3.08;;;11.30;99.90;;;;;;5040985;28;20060;-33
2023/05/01 07:15:14;;;;;;;7.18;2.90;;;11.40;99.90;;;;;;5031750;28;20057;-34
2023/05/01 07:17:39;;;;;;;10.00;2.95;;;11.40;99.90;;;;;;5031046;28;20510;-34
2023/05/01 07:20:06;;;;;;;6.05;2.60;;;11.50;99.90;;;;;;5035997;28;20087;-34
2023/05/01 07:22:31;;;;;;;4.68;2.28;;;11.70;99.90;;;;;;5035430;28;20046;-33
2023/05/01 07:24:57;;;;;;;5.28;2.72;;;11.70;99.90;;;;;;5030701;28;20471;-34
2023/05/01 07:27:23;;;;;;;9.45;2.90;;;11.90;99.90;;;;;;5031570;28;20045;-34
2023/05/01 07:29:49;;;;;;;5.53;2.90;;;12.00;99.90;;;;;;5029559;28;20091;-34
2023/05/01 07:32:15;;;;;;;5.65;2.50;;;12.10;99.90;;;;;;5031295;28;20075;-34
2023/05/01 07:34:41;;;;;;;7.88;3.25;;;12.20;99.90;;;;;;5031689;28;20499;-34
2023/05/01 07:37:06;;;;;;;6.80;2.85;;;12.30;99.90;;;;;;5050863;28;20558;-34
2023/05/01 07:39:32;;;;;;;7.75;3.20;;;12.40;99.90;;;;;;5042652;28;20418;-34
2023/05/01 07:41:58;;;;;;;5.97;2.63;;;12.60;99.90;;;;;;5039135;28;20488;-34
2023/05/01 07:44:23;;;;;;;6.35;3.05;;;12.70;99.90;;;;;;5031009;28;20045;-34
2023/05/01 07:46:49;;;;;;;7.30;3.10;;;12.70;99.90;;;;;;5030508;28;20464;-34
2023/05/01 07:49:14;;;;;;;5.97;2.10;;;12.80;99.90;;;;;;5031012;28;20476;-34
2023/05/01 07:51:41;;;;;;;5.38;2.60;;;12.80;99.90;;;;;;5038559;28;20049;-34
2023/05/01 07:54:07;;;;;;;5.97;2.60;;;12.90;99.90;;;;;;5030984;28;20038;-34
2023/05/01 07:56:33;;;;;;;7.38;2.63;;;12.90;99.90;;;;;;5039081;28;20080;-34
2023/05/01 07:58:58;;;;;;;6.00;2.33;;;12.90;99.90;;;;;;5030222;28;20053;-34
2023/05/01 08:01:24;;;;;;;4.68;2.67;;;13.00;99.90;;;;;;5030605;28;20045;-33
2023/05/01 08:03:50;;;;;;;6.60;3.00;;;13.10;99.90;;;;;;5030287;28;20496;-33
2023/05/01 08:06:16;;;;;;;7.32;2.75;;;13.20;99.90;;;;;;5037909;28;20064;-33
2023/05/01 08:08:42;;;;;;;9.18;2.70;;;13.30;99.90;;;;;;5038620;28;20045;-33
2023/05/01 08:11:08;;;;;;;3.88;1.88;;;13.30;99.90;;;;;;5050650;28;20360;-33
2023/05/01 08:13:33;;;;;;;8.15;3.05;;;13.40;99.90;;;;;;5034427;28;20057;-33
2023/05/01 08:16:01;;;;;;;8.00;2.53;;;13.40;99.90;;;;;;5038513;28;20534;-33
2023/05/01 08:18:27;;;;;;;6.97;2.80;;;13.50;99.90;;;;;;5044776;28;20049;-33
2023/05/01 08:20:52;;;;;;;7.53;2.38;;;13.50;99.90;;;;;;5065048;28;20414;-33
2023/05/01 08:23:18;;;;;;;5.78;3.20;;;13.50;99.90;;;;;;5045057;28;20414;-33
2023/05/01 08:25:49;;;;;;;4.43;2.38;;;13.60;99.90;;;;;;5029672;28;20057;-33
2023/05/01 08:28:16;;;;;;;5.57;2.47;;;13.80;99.90;;;;;;5030070;28;20057;-33
2023/05/01 08:30:45;;;;;;;7.78;2.92;;;13.90;99.90;;;;;;5037882;28;20107;-33
2023/05/01 08:33:11;;;;;;;5.25;2.55;;;14.00;99.90;;;;;;5038569;28;20470;-33
2023/05/01 08:35:36;;;;;;;7.28;2.72;;;14.10;99.90;;;;;;5037262;28;20519;-33
2023/05/01 08:38:02;;;;;;;5.00;2.10;;;14.20;99.90;;;;;;5049474;28;20064;-33
2023/05/01 08:40:31;;;;;;;6.13;2.35;;;14.20;99.90;;;;;;5043536;28;20056;-33
2023/05/01 08:43:01;;;;;;;8.18;3.03;;;14.40;99.90;;;;;;5039655;28;20056;-33
2023/05/01 08:45:34;;;;;;;8.45;2.75;;;14.60;99.90;;;;;;5049478;28;20057;-33
2023/05/01 08:48:05;;;;;;;6.95;2.30;;;14.70;99.90;;;;;;5038481;28;20045;-33
2023/05/01 08:50:33;;;;;;;5.40;2.72;;;14.80;99.90;;;;;;5029634;28;20474;-33
2023/05/01 08:53:00;;;;;;;5.65;2.53;;;14.90;99.90;;;;;;5037649;28;20056;-33
2023/05/01 08:55:28;;;;;;;4.85;2.30;;;15.00;99.90;;;;;;5029986;28;20084;-33
2023/05/01 08:57:56;;;;;;;8.77;2.97;;;15.10;99.90;;;;;;5028869;28;20068;-33
2023/05/01 09:00:24;;;;;;;5.15;2.83;;;15.10;99.90;;;;;;5029763;28;20126;-33
2023/05/01 09:02:50;;;;;;;7.20;3.00;;;15.10;99.90;;;;;;5029139;28;20089;-33
2023/05/01 09:05:18;;;;;;;6.53;2.80;;;15.20;99.90;;;;;;5029731;28;20132;-34
2023/05/01 09:07:45;;;;;;;5.88;2.95;;;15.30;99.90;;;;;;5037318;28;20045;-34
2023/05/01 09:10:17;;;;;;;6.93;2.85;;;15.30;99.90;;;;;;5045316;28;20068;-35
2023/05/01 09:12:46;;;;;;;6.13;3.05;;;15.40;99.90;;;;;;5029604;28;20075;-35
2023/05/01 09:15:12;;;;;;;5.75;2.83;;;15.60;99.90;;;;;;5039277;28;20076;-35
2023/05/01 09:17:38;;;;;;;8.52;3.00;;;15.70;99.90;;;;;;5036332;28;20429;-35
2023/05/01 09:20:06;;;;;;;6.22;2.65;;;15.70;99.90;;;;;;5031050;28;20056;-34
2023/05/01 09:22:33;;;;;;;10.20;2.50;;;15.70;99.90;;;;;;5035022;28;20064;-35
2023/05/01 09:24:59;;;;;;;5.10;2.30;;;15.80;99.90;;;;;;5037026;28;20135;-35
2023/05/01 09:27:26;;;;;;;6.65;2.88;;;16.00;99.90;;;;;;5034524;28;20155;-35
2023/05/01 09:29:51;;;;;;;5.38;3.20;;;16.20;99.90;;;;;;5031636;28;20108;-34
2023/05/01 09:32:23;;;;;;;6.25;2.85;;;16.30;99.90;;;;;;5029405;28;20057;-33
2023/05/01 09:34:52;;;;;;;11.07;3.05;;;16.40;99.90;;;;;;5028701;28;20053;-33
2023/05/01 09:37:31;;;;;;;7.55;2.70;;;16.50;99.90;;;;;;5041415;28;20061;-33
2023/05/01 09:40:26;;;;;;;9.05;3.38;;;16.60;99.90;;;;;;5031056;28;20053;-33
2023/05/01 09:42:54;;;;;;;7.85;2.90;;;16.70;99.90;;;;;;5026327;28;20139;-33
2023/05/01 09:45:22;;;;;;;7.10;3.20;;;16.80;99.90;;;;;;5031335;28;20392;-33
2023/05/01 09:47:48;;;;;;;5.95;2.85;;;16.90;99.90;;;;;;5036881;28;20057;-35
2023/05/01 09:50:30;;;;;;;7.00;2.80;;;17.10;99.90;;;;;;5029108;28;20495;-35
2023/05/01 09:52:56;;;;;;;6.65;2.70;;;17.40;99.90;;;;;;5028381;28;20061;-35
2023/05/01 09:55:22;;;;;;;6.05;2.80;;;17.60;99.90;;;;;;5037662;28;20076;-36
2023/05/01 09:57:48;;;;;;;6.20;2.10;;;17.70;99.90;;;;;;5028626;28;20058;-35
2023/05/01 10:00:15;;;;;;;4.05;1.65;;;17.80;99.90;;;;;;5028587;28;20060;-35
2023/05/01 10:02:46;;;;;;;2.70;1.33;;;17.90;99.90;;;;;;5029229;28;20056;-36
2023/05/01 10:05:12;;;;;;;3.63;1.25;;;17.90;99.90;;;;;;5028364;28;20045;-35
2023/05/01 10:07:39;;;;;;;6.63;1.88;;;18.10;99.90;;;;;;5028611;28;20060;-36
2023/05/01 10:10:15;;;;;;;3.95;1.90;;;18.30;99.90;;;;;;5040141;28;20507;-35
2023/05/01 10:12:41;;;;;;;2.72;1.27;;;18.30;99.90;;;;;;5044645;28;20103;-36
2023/05/01 10:15:08;;;;;;;4.25;1.25;;;18.40;99.90;;;;;;5048011;28;20057;-35
2023/05/01 10:17:34;;;;;;;5.45;1.40;;;18.50;99.90;;;;;;5049019;28;20064;-36
2023/05/01 10:20:00;;;;;;;3.40;1.40;;;18.60;99.90;;;;;;5047832;28;20087;-35
2023/05/01 10:22:26;;;;;;;5.32;1.75;;;18.60;99.90;;;;;;5050681;28;20422;-35
2023/05/01 10:24:52;;;;;;;6.03;1.83;;;18.70;99.90;;;;;;5052367;28;20049;-35
2023/05/01 10:27:21;;;;;;;4.55;1.85;;;18.80;99.90;;;;;;5051844;28;20105;-35
2023/05/01 10:29:51;;;;;;;3.95;1.80;;;18.80;99.90;;;;;;5052241;28;20152;-35
2023/05/01 10:32:17;;;;;;;4.78;1.60;;;18.80;99.90;;;;;;5051553;28;20053;-35
2023/05/01 10:34:47;;;;;;;3.92;1.65;;;18.80;99.90;;;;;;5052351;28;20086;-35
2023/05/01 10:37:25;;;;;;;7.22;2.10;;;18.90;99.90;;;;;;5051018;28;20088;-35
2023/05/01 10:39:51;;;;;;;3.33;1.83;;;19.10;99.90;;;;;;5052115;28;20079;-35
2023/05/01 10:42:17;;;;;;;6.25;1.98;;;19.30;99.90;;;;;;5051531;28;20093;-35
2023/05/01 10:44:45;;;;;;;5.10;2.00;;;19.30;99.90;;;;;;5052001;28;20497;-35
2023/05/01 10:47:27;;;;;;;4.07;1.80;;;19.30;99.90;;;;;;5050773;28;20040;-35
2023/05/01 10:50:08;;;;;;;2.75;1.27;;;19.40;99.90;;;;;;5052141;28;20060;-35
2023/05/01 10:53:11;;;;;;;4.15;1.60;;;19.50;99.90;;;;;;5051413;28;20048;-35
2023/05/01 10:55:38;;;;;;;4.40;2.17;;;19.60;99.90;;;;;;5039525;28;20057;-35
2023/05/01 10:58:04;;;;;;;4.32;1.83;;;19.60;99.90;;;;;;5031666;28;20053;-35
2023/05/01 11:00:31;;;;;;;3.47;1.40;;;19.50;99.90;;;;;;5031297;28;20099;-35
2023/05/01 11:03:21;;;;;;;3.80;1.40;;;19.50;99.90;;;;;;5031979;28;20080;-35
2023/05/01 11:05:59;;;;;;;4.30;1.48;;;19.80;99.90;;;;;;5029265;28;20057;-35
2023/05/01 11:08:38;;;;;;;3.92;1.40;;;20.00;99.90;;;;;;5033926;28;20518;-35
2023/05/01 11:11:22;;;;;;;5.13;1.67;;;20.10;99.90;;;;;;5037974;28;20072;-34
2023/05/01 11:14:00;;;;;;;4.40;1.52;;;20.10;99.90;;;;;;5032179;28;20057;-34
2023/05/01 11:16:38;;;;;;;5.90;1.30;;;20.20;99.90;;;;;;5039343;28;20053;-34
2023/05/01 11:19:04;;;;;;;3.65;1.50;;;20.30;99.90;;;;;;5045702;28;20107;-34
2023/05/01 11:21:35;;;;;;;3.30;1.30;;;20.50;99.90;;;;;;5030535;28;20049;-34
2023/05/01 11:24:05;;;;;;;2.65;1.10;;;20.60;99.90;;;;;;5031346;28;20534;-34
2023/05/01 11:26:31;;;;;;;3.90;1.33;;;20.70;99.90;;;;;;5030788;28;20057;-34
2023/05/01 11:28:59;;;;;;;2.30;0.80;;;20.70;99.90;;;;;;5031370;28;20064;-34
2023/05/01 11:31:25;;;;;;;3.13;0.90;;;20.50;99.90;;;;;;5039412;28;20053;-34
2023/05/01 11:33:54;;;;;;;4.18;1.00;;;20.40;99.90;;;;;;5042392;28;20525;-35
2023/05/01 11:36:20;;;;;;;6.18;1.40;;;20.20;99.90;;;;;;5051186;28;20513;-35
2023/05/01 11:38:58;;;;;;;4.32;0.80;;;20.20;99.90;;;;;;5050019;28;20057;-34
2023/05/01 11:41:25;;;;;;;1.63;0.70;;;20.20;99.90;;;;;;5035261;28;20045;-35
2023/05/01 11:43:56;;;;;;;1.65;0.80;;;20.30;99.90;;;;;;5035366;28;20484;-34
2023/05/01 11:46:26;;;;;;;3.85;0.85;;;20.40;99.90;;;;;;5027622;28;20052;-34
2023/05/01 11:49:00;;;;;;;3.25;0.95;;;20.50;99.90;;;;;;5030161;28;20124;-34
2023/05/01 11:51:27;;;;;;;3.13;1.05;;;20.70;99.90;;;;;;5039144;28;20414;-34
2023/05/01 11:54:02;;;;;;;3.38;0.80;;;20.80;99.90;;;;;;5026606;28;20111;-34
2023/05/01 11:56:29;;;;;;;2.40;1.10;;;20.90;99.90;;;;;;5049590;28;20057;-34
2023/05/01 11:58:57;;;;;;;2.95;0.98;;;21.10;99.90;;;;;;5046865;28;20049;-34
2023/05/01 12:01:39;;;;;;;2.50;1.00;;;21.00;99.90;;;;;;5038050;28;20095;-34
2023/05/01 12:04:07;;;;;;;3.85;1.27;;;21.00;99.90;;;;;;5033772;28;20048;-34
2023/05/01 12:06:44;;;;;;;4.00;1.23;;;21.10;99.90;;;;;;5042753;28;20396;-34
2023/05/01 12:09:17;;;;;;;3.28;1.30;;;21.10;99.90;;;;;;5041414;28;20049;-35
2023/05/01 12:11:44;;;;;;;3.97;1.48;;;21.10;99.90;;;;;;5050659;28;20107;-35
2023/05/01 12:14:13;;;;;;;4.70;1.65;;;21.00;99.90;;;;;;5037864;28;20138;-34
2023/05/01 12:16:39;;;;;;;2.45;1.23;;;21.20;99.90;;;;;;5038626;28;20058;-35
2023/05/01 12:19:05;;;;;;;4.20;1.50;;;21.20;99.90;;;;;;5037952;28;20037;-35
2023/05/01 12:21:31;;;;;;;5.68;1.73;;;21.20;99.90;;;;;;5030638;28;20049;-34
2023/05/01 12:24:10;;;;;;;3.78;1.70;;;21.30;99.90;;;;;;5029623;28;20049;-34
2023/05/01 12:26:36;;;;;;;5.28;1.80;;;21.40;99.90;;;;;;5028329;28;20037;-35
2023/05/01 12:29:07;;;;;;;3.05;1.40;;;21.40;99.90;;;;;;5027210;28;20076;-34
2023/05/01 12:31:34;;;;;;;2.53;1.30;;;21.40;99.90;;;;;;5030907;28;20068;-35
2023/05/01 12:34:00;;;;;;;4.28;1.70;;;21.50;99.90;;;;;;5025195;28;20050;-35
2023/05/01 12:36:28;;;;;;;4.47;1.80;;;21.70;99.90;;;;;;5018240;28;20112;-34
2023/05/01 12:38:55;;;;;;;3.45;1.58;;;21.80;99.90;;;;;;5019189;28;20108;-35
2023/05/01 12:41:30;;;;;;;3.33;1.63;;;22.00;99.90;;;;;;5022742;28;20058;-35
2023/05/01 12:43:56;;;;;;;5.75;1.60;;;22.00;99.90;;;;;;5002045;28;20053;-35
2023/05/01 12:46:22;;;;;;;4.72;1.60;;;22.00;99.90;;;;;;5032722;28;20119;-35
2023/05/01 12:48:48;;;;;;;3.45;1.48;;;22.10;99.90;;;;;;5032258;28;20053;-34
2023/05/01 12:51:20;;;;;;;2.65;1.60;;;22.40;99.90;;;;;;5029513;28;20065;-34
2023/05/01 12:53:46;;;;;;;6.00;1.70;;;22.50;99.90;;;;;;5044984;28;20487;-35
2023/05/01 12:56:23;;;;;;;3.58;1.83;;;22.70;99.90;;;;;;5029324;28;22338;-35